Time;durP1;ratioP1;P1;durP2;ratioP2;P2;SDS_P1;SDS_P2;PMS_P1;PMS_P2;Temp;Humidity;BMP_temperature;BMP_pressure;BME280_temperature;BME280_humidity;BME280_pressure;Samples;Min_cycle;Max_cycle;Signal;HPM_P1;HPM_P2
2022/12/03 00:01:59;;;;;;;8.40;4.10;;;;;;;2.71;52.64;102643.16;4961551;28;20550;-65
2022/12/03 00:04:24;;;;;;;12.07;5.07;;;;;;;2.64;52.41;102645.56;4981534;28;20373;-65
2022/12/03 00:06:50;;;;;;;9.27;5.35;;;;;;;2.69;52.27;102637.09;4978932;28;20054;-64
2022/12/03 00:09:15;;;;;;;9.75;4.47;;;;;;;2.74;52.22;102642.34;4980150;28;20093;-65
2022/12/03 00:11:41;;;;;;;10.18;5.28;;;;;;;2.78;52.72;102628.66;4979269;28;20038;-65
2022/12/03 00:14:06;;;;;;;13.40;5.25;;;;;;;2.80;52.32;102637.31;4977790;28;20045;-66
2022/12/03 00:16:32;;;;;;;13.23;5.43;;;;;;;2.80;52.28;102637.31;4963615;28;20062;-65
2022/12/03 00:18:57;;;;;;;11.65;5.25;;;;;;;3.00;52.01;102632.53;4960117;28;20447;-65
2022/12/03 00:21:23;;;;;;;8.57;3.92;;;;;;;3.12;51.79;102632.78;4964874;28;20038;-65
2022/12/03 00:23:48;;;;;;;12.80;5.05;;;;;;;2.87;52.44;102622.81;4977685;28;20128;-66
2022/12/03 00:26:13;;;;;;;12.13;4.68;;;;;;;2.91;51.99;102630.66;4978146;28;20026;-65
2022/12/03 00:28:39;;;;;;;10.48;5.15;;;;;;;2.76;52.07;102635.50;4976449;28;20226;-65
2022/12/03 00:31:04;;;;;;;12.80;5.00;;;;;;;2.69;52.33;102629.34;4947178;28;20058;-65
2022/12/03 00:33:30;;;;;;;12.60;5.00;;;;;;;3.06;51.57;102630.06;4977005;28;20411;-65
2022/12/03 00:35:55;;;;;;;11.90;5.10;;;;;;;2.85;51.90;102630.53;4961927;28;20197;-66
2022/12/03 00:38:21;;;;;;;10.95;5.38;;;;;;;2.69;52.35;102621.59;4976095;28;20496;-65
2022/12/03 00:40:46;;;;;;;9.57;4.68;;;;;;;2.65;52.29;102622.34;4962647;28;20109;-65
2022/12/03 00:43:12;;;;;;;12.93;5.90;;;;;;;2.65;52.44;102622.34;4977155;28;20046;-65
2022/12/03 00:45:37;;;;;;;12.63;4.95;;;;;;;2.90;51.92;102623.72;4961649;28;20042;-66
2022/12/03 00:48:03;;;;;;;7.15;4.40;;;;;;;2.91;52.30;102620.31;4978312;28;20038;-65
2022/12/03 00:50:28;;;;;;;11.40;4.82;;;;;;;2.74;52.79;102625.13;4977506;28;20254;-65
2022/12/03 00:52:54;;;;;;;10.38;4.85;;;;;;;2.73;52.54;102613.06;4978915;28;20035;-65
2022/12/03 00:55:19;;;;;;;12.38;4.78;;;;;;;2.71;52.69;102614.75;4977762;28;20404;-66
2022/12/03 00:57:45;;;;;;;11.07;4.85;;;;;;;2.98;51.77;102617.00;4977266;28;20108;-66
2022/12/03 01:00:12;;;;;;;10.55;5.07;;;;;;;2.75;52.23;102619.09;4980557;28;20111;-65
2022/12/03 01:02:37;;;;;;;12.88;5.55;;;;;;;2.95;51.89;102616.94;4976924;28;20042;-65
2022/12/03 01:05:03;;;;;;;9.43;4.53;;;;;;;2.85;52.23;102616.75;4979953;28;20025;-66
2022/12/03 01:07:29;;;;;;;9.32;4.57;;;;;;;2.66;52.24;102611.19;4977374;28;20046;-66
2022/12/03 01:09:54;;;;;;;12.57;6.35;;;;;;;2.60;51.81;102613.66;4962574;28;20277;-67
2022/12/03 01:12:20;;;;;;;12.13;5.93;;;;;;;2.83;50.85;102615.84;4980541;28;20769;-67
2022/12/03 01:14:45;;;;;;;13.13;6.47;;;;;;;2.59;51.86;102616.19;4983939;28;20645;-67
2022/12/03 01:17:11;;;;;;;12.63;4.70;;;;;;;2.75;51.03;102613.09;4983427;28;20100;-67
2022/12/03 01:19:37;;;;;;;13.02;5.15;;;;;;;2.63;51.53;102618.00;4979017;28;20491;-67
2022/12/03 01:22:03;;;;;;;11.43;4.75;;;;;;;2.59;51.43;102617.06;4982283;28;20497;-67
2022/12/03 01:24:29;;;;;;;15.35;6.85;;;;;;;2.73;50.95;102622.50;4963157;28;20053;-66
2022/12/03 01:26:55;;;;;;;13.23;6.10;;;;;;;2.84;50.56;102617.56;4980738;28;20049;-65
2022/12/03 01:29:21;;;;;;;13.05;5.53;;;;;;;2.87;50.66;102615.06;4980297;28;20089;-65
2022/12/03 01:34:31;;;;;;;12.45;5.53;;;;;;;2.68;51.06;102617.25;4981970;28;20065;-65
2022/12/03 01:36:57;;;;;;;11.85;6.05;;;;;;;2.48;51.12;102621.97;4963333;28;20103;-66
2022/12/03 01:39:23;;;;;;;14.13;6.63;;;;;;;2.30;51.02;102622.44;4947369;28;20497;-65
2022/12/03 01:41:50;;;;;;;12.48;6.10;;;;;;;2.47;50.46;102621.97;4980738;28;20034;-65
2022/12/03 01:44:21;;;;;;;11.70;5.88;;;;;;;2.57;50.03;102619.59;4981608;28;20510;-65
2022/12/03 01:46:49;;;;;;;11.85;6.40;;;;;;;2.46;50.47;102620.22;4979680;28;20061;-65
2022/12/03 01:49:21;;;;;;;14.10;6.20;;;;;;;2.44;50.05;102617.59;4980823;28;20042;-65
2022/12/03 01:51:48;;;;;;;12.45;5.65;;;;;;;2.62;49.66;102614.53;4962868;28;20241;-66
2022/12/03 01:54:31;;;;;;;11.15;6.22;;;;;;;2.56;49.64;102617.00;4981638;28;20508;-66
2022/12/03 01:56:57;;;;;;;13.55;6.07;;;;;;;2.60;49.44;102618.81;4980150;28;20070;-65
2022/12/03 01:59:32;;;;;;;12.07;6.13;;;;;;;2.52;49.50;102620.34;4980590;28;20068;-65
2022/12/03 02:01:58;;;;;;;15.07;6.47;;;;;;;2.60;49.35;102629.16;4944452;28;20038;-66
2022/12/03 02:04:24;;;;;;;13.27;6.88;;;;;;;2.43;49.84;102625.31;4963088;28;20033;-68
2022/12/03 02:06:49;;;;;;;22.30;7.30;;;;;;;2.44;49.98;102627.06;4966066;28;20034;-68
2022/12/03 02:09:15;;;;;;;13.48;7.22;;;;;;;2.25;50.22;102625.78;4981989;28;20109;-68
2022/12/03 02:11:48;;;;;;;12.82;6.88;;;;;;;2.27;49.87;102630.13;4980465;28;20056;-68
2022/12/03 02:14:20;;;;;;;12.35;6.15;;;;;;;2.18;50.06;102629.94;4981699;28;20081;-68
2022/12/03 02:16:46;;;;;;;16.70;6.90;;;;;;;2.28;50.02;102626.69;4979824;28;20491;-67
2022/12/03 02:19:25;;;;;;;14.88;7.05;;;;;;;2.35;49.77;102631.19;4964260;28;20042;-69
2022/12/03 02:22:06;;;;;;;13.80;6.53;;;;;;;2.10;50.42;102623.72;4960389;28;20045;-69
2022/12/03 02:24:47;;;;;;;16.52;6.93;;;;;;;2.31;50.07;102616.47;4979687;28;20628;-70
2022/12/03 02:27:13;;;;;;;20.65;6.95;;;;;;;2.47;49.91;102620.25;4982425;28;20514;-68
2022/12/03 02:29:38;;;;;;;15.05;7.00;;;;;;;2.21;50.25;102622.25;4960542;28;20030;-65
2022/12/03 02:32:04;;;;;;;18.25;7.50;;;;;;;2.16;50.87;102620.41;4979993;28;20026;-65
2022/12/03 02:34:35;;;;;;;12.60;6.93;;;;;;;2.31;50.46;102620.72;4980900;28;20541;-68
2022/12/03 02:37:01;;;;;;;15.05;7.07;;;;;;;2.46;50.23;102628.81;4980242;28;20393;-67
2022/12/03 02:39:27;;;;;;;17.40;7.50;;;;;;;2.13;50.35;102618.59;4980523;28;20149;-67
2022/12/03 02:44:37;;;;;;;17.08;6.80;;;;;;;2.37;49.77;102622.59;4979429;28;20022;-69
2022/12/03 02:47:03;;;;;;;14.38;6.50;;;;;;;2.58;49.56;102610.16;4978582;28;20911;-68
2022/12/03 02:49:28;;;;;;;14.40;7.10;;;;;;;2.59;49.45;102616.19;4979760;28;20030;-67
2022/12/03 02:51:54;;;;;;;13.43;7.10;;;;;;;2.51;50.00;102616.91;4978816;28;20045;-68
2022/12/03 02:54:19;;;;;;;12.82;6.70;;;;;;;2.38;50.16;102621.75;4980014;28;20038;-68
2022/12/03 02:56:45;;;;;;;16.20;7.53;;;;;;;2.40;50.18;102620.06;4980388;28;20634;-68
2022/12/03 02:59:10;;;;;;;13.63;6.65;;;;;;;2.23;50.35;102612.84;4978731;28;20034;-68
2022/12/03 03:01:36;;;;;;;13.73;6.38;;;;;;;2.14;50.52;102617.78;4979201;28;20030;-68
2022/12/03 03:04:03;;;;;;;19.70;7.32;;;;;;;2.10;50.40;102615.97;4970308;28;20069;-68
2022/12/03 03:06:29;;;;;;;16.23;6.53;;;;;;;2.08;50.16;102617.63;4981474;28;20034;-68
2022/12/03 03:08:55;;;;;;;14.50;5.80;;;;;;;2.19;49.75;102621.34;4963980;28;20041;-68
2022/12/03 03:11:21;;;;;;;17.52;6.43;;;;;;;2.28;49.25;102620.69;4981237;28;20030;-67
2022/12/03 03:13:47;;;;;;;17.50;7.60;;;;;;;2.08;49.61;102618.50;4943836;28;20038;-68
2022/12/03 03:16:13;;;;;;;16.25;7.03;;;;;;;2.30;49.21;102624.16;4981869;28;20236;-68
2022/12/03 03:18:39;;;;;;;17.33;6.55;;;;;;;2.06;49.63;102624.47;4976537;28;20053;-68
2022/12/03 03:21:05;;;;;;;14.23;6.63;;;;;;;1.74;50.05;102622.00;4983044;28;20053;-68
2022/12/03 03:23:30;;;;;;;15.82;7.00;;;;;;;1.83;49.60;102621.34;4948496;28;20465;-68
2022/12/03 03:26:05;;;;;;;18.92;7.22;;;;;;;1.92;49.02;102632.75;4962382;28;20645;-67
2022/12/03 03:28:33;;;;;;;17.45;6.25;;;;;;;2.02;48.78;102617.50;4979765;28;20069;-66
2022/12/03 03:31:02;;;;;;;14.65;6.32;;;;;;;1.64;49.35;102620.91;4981524;28;20057;-68
2022/12/03 03:33:29;;;;;;;17.35;6.82;;;;;;;1.77;49.06;102624.63;4981029;28;20620;-68
2022/12/03 03:35:55;;;;;;;16.98;6.80;;;;;;;2.01;48.35;102631.22;4977179;28;20044;-68
2022/12/03 03:38:22;;;;;;;16.52;6.72;;;;;;;1.79;48.92;102630.69;4979069;28;20034;-68
2022/12/03 03:40:49;;;;;;;13.70;6.82;;;;;;;1.75;49.29;102628.88;4978190;28;20388;-68
2022/12/03 03:43:15;;;;;;;14.20;5.57;;;;;;;1.40;49.35;102628.88;4961124;28;20046;-69
2022/12/03 03:45:41;;;;;;;18.23;5.88;;;;;;;1.88;48.50;102624.91;4976134;28;20100;-68
2022/12/03 03:48:07;;;;;;;13.73;5.88;;;;;;;1.74;48.96;102632.31;4977519;28;20053;-68
2022/12/03 03:50:33;;;;;;;13.88;6.75;;;;;;;1.90;48.54;102621.53;4979614;28;20026;-67
2022/12/03 03:53:03;;;;;;;13.70;7.15;;;;;;;1.93;48.85;102618.16;4977979;28;20046;-68
2022/12/03 03:55:30;;;;;;;16.17;6.65;;;;;;;1.92;48.83;102612.13;4978365;28;20101;-67
2022/12/03 03:57:58;;;;;;;13.15;6.43;;;;;;;1.75;49.16;102621.13;4977166;28;20038;-67
2022/12/03 04:00:23;;;;;;;15.02;6.07;;;;;;;1.95;49.22;102621.63;4961782;28;20200;-67
2022/12/03 04:02:49;;;;;;;13.80;6.47;;;;;;;1.99;48.89;102612.28;4975720;28;20537;-67
2022/12/03 04:05:18;;;;;;;15.13;6.10;;;;;;;1.80;48.58;102622.16;4963388;28;20442;-67
2022/12/03 04:07:43;;;;;;;18.45;7.38;;;;;;;1.91;48.19;102619.84;4974557;28;20415;-68
2022/12/03 04:12:54;;;;;;;19.67;9.10;;;;;;;2.00;47.81;102624.31;4976010;28;20104;-67
2022/12/03 04:15:19;;;;;;;18.73;7.20;;;;;;;1.75;48.75;102622.84;4980229;28;20038;-67
2022/12/03 04:18:41;;;;;;;18.48;5.32;;;;;;;1.67;48.91;102615.81;4976253;28;20045;-67
2022/12/03 04:20:30;;;;;;;18.35;6.95;;;;;;;1.69;48.17;102618.44;4979074;28;20058;-67
2022/12/03 04:22:55;;;;;;;16.08;6.18;;;;;;;1.41;48.95;102612.56;4975955;28;20533;-68
2022/12/03 04:30:49;;;;;;;13.27;6.03;;;;;;;1.89;47.63;102604.31;4978037;28;20080;-67
2022/12/03 04:35:58;;;;;;;13.35;5.68;;;;;;;1.30;48.47;102608.78;4978772;28;20061;-67
2022/12/03 04:38:24;;;;;;;13.25;5.60;;;;;;;1.45;48.52;102603.22;4977716;28;20161;-72
2022/12/03 04:41:03;;;;;;;15.55;6.00;;;;;;;1.77;47.74;102601.44;4979901;28;20034;-72
2022/12/03 04:44:31;;;;;;;9.65;4.53;;;;;;;1.73;47.79;102589.31;4960692;28;20451;-71
2022/12/03 04:46:23;;;;;;;10.60;5.68;;;;;;;1.72;47.58;102596.16;4980958;28;20041;-71
2022/12/03 04:48:48;;;;;;;11.15;4.65;;;;;;;1.69;47.72;102597.81;4982251;28;20038;-70
2022/12/03 04:51:14;;;;;;;10.43;4.70;;;;;;;1.37;48.50;102600.38;4952770;28;20030;-71
2022/12/03 04:53:39;;;;;;;13.93;6.38;;;;;;;1.35;48.14;102594.34;4954603;28;20140;-67
2022/12/03 04:56:05;;;;;;;13.90;5.35;;;;;;;1.61;47.84;102592.44;4982391;28;20062;-68
2022/12/03 04:58:30;;;;;;;13.05;5.75;;;;;;;1.75;47.97;102592.78;4990461;28;20069;-68
2022/12/03 05:00:56;;;;;;;15.50;5.75;;;;;;;1.47;48.52;102586.97;4998389;28;20242;-69
2022/12/03 05:03:21;;;;;;;12.38;4.97;;;;;;;1.76;47.69;102586.81;4986551;28;20141;-69
2022/12/03 05:05:46;;;;;;;16.75;7.28;;;;;;;1.43;48.49;102587.69;4974076;28;20110;-69
2022/12/03 05:08:12;;;;;;;16.88;6.90;;;;;;;1.73;47.86;102591.91;4992223;28;20074;-69
2022/12/03 05:10:37;;;;;;;14.05;6.97;;;;;;;1.52;47.75;102587.94;4967144;28;20282;-69
2022/12/03 05:13:03;;;;;;;13.95;5.25;;;;;;;1.60;47.96;102589.84;4966424;28;20054;-69
2022/12/03 05:15:28;;;;;;;9.98;5.00;;;;;;;1.52;47.81;102587.94;4983029;28;20034;-69
2022/12/03 05:17:53;;;;;;;13.70;5.07;;;;;;;1.68;47.10;102585.75;4981227;28;20038;-70
2022/12/03 05:23:03;;;;;;;10.07;4.45;;;;;;;1.42;47.63;102588.56;4968562;28;20069;-70
2022/12/03 05:25:28;;;;;;;11.68;5.40;;;;;;;1.15;48.17;102588.66;4982243;28;20151;-70
2022/12/03 05:27:54;;;;;;;11.52;5.50;;;;;;;1.37;47.82;102584.94;4964593;28;20031;-70
2022/12/03 05:30:19;;;;;;;11.57;4.53;;;;;;;1.52;47.59;102585.34;4978596;28;20029;-66
2022/12/03 05:32:45;;;;;;;11.07;4.65;;;;;;;1.38;47.63;102586.69;4964266;28;20042;-67
2022/12/03 05:35:10;;;;;;;14.43;7.05;;;;;;;1.45;47.91;102598.94;4965356;28;20054;-67
2022/12/03 05:37:36;;;;;;;15.10;4.97;;;;;;;1.44;47.88;102592.03;4964005;28;20042;-66
2022/12/03 05:40:02;;;;;;;8.52;4.03;;;;;;;1.60;47.33;102595.00;4981465;28;20320;-67
2022/12/03 05:45:11;;;;;;;13.15;5.35;;;;;;;1.50;47.50;102597.31;4981321;28;20724;-67
2022/12/03 05:47:36;;;;;;;16.50;5.30;;;;;;;1.45;47.86;102588.63;4959253;28;20038;-67
2022/12/03 05:50:02;;;;;;;14.85;5.93;;;;;;;1.54;47.34;102597.44;4981538;28;20025;-67
2022/12/03 05:52:28;;;;;;;13.02;5.72;;;;;;;1.29;47.79;102589.91;4980480;28;20038;-67
2022/12/03 05:54:53;;;;;;;11.38;4.80;;;;;;;1.57;47.68;102592.34;4962875;28;20040;-67
2022/12/03 05:57:18;;;;;;;12.40;4.18;;;;;;;1.43;47.56;102589.41;4976568;28;20046;-66
2022/12/03 05:59:44;;;;;;;10.57;4.60;;;;;;;1.38;47.61;102591.84;4981431;28;20034;-66
2022/12/03 06:02:10;;;;;;;13.35;5.13;;;;;;;1.46;47.48;102590.38;4980970;28;20046;-65
2022/12/03 06:04:35;;;;;;;11.80;4.13;;;;;;;1.40;47.44;102595.38;4979453;28;20411;-67
2022/12/03 06:07:01;;;;;;;14.05;5.03;;;;;;;1.59;46.92;102585.50;4961591;28;22781;-66
2022/12/03 06:09:26;;;;;;;16.88;5.43;;;;;;;1.41;47.58;102581.63;4962107;28;20049;-67
2022/12/03 06:11:53;;;;;;;11.45;5.60;;;;;;;1.24;48.13;102585.47;4965156;28;20050;-68
2022/12/03 06:14:19;;;;;;;21.02;5.57;;;;;;;1.15;48.11;102592.94;4970562;28;20038;-67
2022/12/03 06:16:44;;;;;;;14.05;6.55;;;;;;;1.25;47.38;102592.34;4971510;28;20458;-66
2022/12/03 06:19:10;;;;;;;15.57;5.80;;;;;;;1.14;47.76;102589.50;4960996;28;20041;-67
2022/12/03 06:21:35;;;;;;;12.63;4.88;;;;;;;1.41;47.22;102586.78;4981064;28;20030;-66
2022/12/03 06:24:01;;;;;;;17.02;6.93;;;;;;;1.44;46.97;102581.72;4961492;28;22775;-64
2022/12/03 06:26:26;;;;;;;15.05;5.78;;;;;;;1.09;47.36;102580.78;4964139;28;20145;-65
2022/12/03 06:28:52;;;;;;;16.50;6.13;;;;;;;0.95;47.70;102580.41;4966739;28;22578;-66
2022/12/03 06:31:18;;;;;;;16.00;4.85;;;;;;;1.13;47.43;102579.13;4963032;28;20410;-68
2022/12/03 06:33:43;;;;;;;16.10;6.47;;;;;;;1.04;47.74;102578.06;4963457;28;20042;-65
2022/12/03 06:36:09;;;;;;;16.20;6.55;;;;;;;0.85;48.44;102580.97;4962796;28;20046;-67
2022/12/03 06:38:34;;;;;;;15.32;5.30;;;;;;;1.15;47.55;102574.91;4978122;28;20042;-65
2022/12/03 06:41:00;;;;;;;15.65;6.22;;;;;;;0.89;48.22;102575.09;4959300;28;20026;-68
2022/12/03 06:43:25;;;;;;;11.05;5.07;;;;;;;1.14;47.83;102580.91;4963362;28;20038;-66
2022/12/03 06:45:51;;;;;;;13.65;5.47;;;;;;;1.35;47.05;102575.41;4974812;28;20253;-66
2022/12/03 06:48:17;;;;;;;14.93;5.82;;;;;;;1.34;47.27;102574.56;4942268;28;20126;-66
2022/12/03 06:50:45;;;;;;;16.55;6.55;;;;;;;1.32;47.53;102578.78;4962453;28;20427;-67
2022/12/03 06:53:10;;;;;;;14.07;5.57;;;;;;;1.04;47.83;102578.06;4961831;28;20045;-67
2022/12/03 06:55:36;;;;;;;13.63;6.30;;;;;;;0.93;48.12;102576.06;4976231;28;20431;-68
2022/12/03 06:58:02;;;;;;;13.15;6.15;;;;;;;1.11;47.25;102581.69;4954222;28;20133;-68
2022/12/03 07:00:28;;;;;;;15.57;6.72;;;;;;;1.12;47.43;102586.00;4964514;28;20026;-68
2022/12/03 07:02:53;;;;;;;17.58;6.43;;;;;;;1.14;47.56;102591.19;4967248;28;20110;-67
2022/12/03 07:05:19;;;;;;;19.60;6.80;;;;;;;1.19;47.40;102589.59;4958858;28;20035;-69
2022/12/03 07:07:50;;;;;;;20.67;6.55;;;;;;;1.04;47.89;102595.25;4957559;28;20069;-68
2022/12/03 07:10:17;;;;;;;20.20;6.47;;;;;;;1.01;48.09;102585.69;4956937;28;20023;-68
2022/12/03 07:12:43;;;;;;;11.77;5.45;;;;;;;1.11;47.65;102587.72;4958208;28;20288;-66
2022/12/03 07:15:09;;;;;;;17.27;7.20;;;;;;;0.96;48.04;102597.59;4960030;28;20034;-66
2022/12/03 07:17:35;;;;;;;15.10;6.97;;;;;;;1.06;47.82;102593.53;4957746;28;20047;-67
2022/12/03 07:20:03;;;;;;;14.45;6.03;;;;;;;0.89;47.83;102595.69;4954069;28;20519;-63
2022/12/03 07:22:31;;;;;;;20.50;7.35;;;;;;;1.10;47.73;102593.69;4949334;28;20581;-65
2022/12/03 07:24:57;;;;;;;17.83;6.32;;;;;;;0.84;48.21;102592.13;4942671;28;20415;-65
2022/12/03 07:27:23;;;;;;;19.90;6.50;;;;;;;0.78;48.47;102594.50;4949491;28;20050;-67
2022/12/03 07:29:48;;;;;;;21.08;7.72;;;;;;;1.13;47.25;102594.59;4955432;28;20038;-67
2022/12/03 07:32:14;;;;;;;15.90;6.45;;;;;;;1.04;47.74;102593.53;4959169;28;20081;-65
2022/12/03 07:34:40;;;;;;;16.80;7.75;;;;;;;1.08;47.49;102579.91;4958089;28;20023;-68
2022/12/03 07:37:06;;;;;;;16.67;6.18;;;;;;;1.01;47.70;102585.69;4959675;28;20455;-68
2022/12/03 07:39:32;;;;;;;16.67;6.97;;;;;;;0.94;47.64;102583.78;4944102;28;20043;-69
2022/12/03 07:41:58;;;;;;;17.73;7.03;;;;;;;0.87;47.85;102581.88;4954488;28;20061;-71
2022/12/03 07:44:23;;;;;;;15.95;6.75;;;;;;;1.04;47.34;102574.63;4959324;28;20092;-68
2022/12/03 07:46:49;;;;;;;18.98;6.65;;;;;;;0.95;47.49;102572.69;4957054;28;20069;-69
2022/12/03 07:49:15;;;;;;;18.73;7.07;;;;;;;0.89;47.25;102573.38;4955582;28;20054;-69
2022/12/03 07:51:41;;;;;;;13.45;6.85;;;;;;;1.04;47.42;102572.94;4958283;28;20049;-68
2022/12/03 07:54:07;;;;;;;15.90;6.90;;;;;;;1.00;47.66;102578.81;4959619;28;20046;-68
2022/12/03 07:56:33;;;;;;;16.10;5.97;;;;;;;1.29;47.08;102581.31;4958778;28;20039;-68
2022/12/03 07:58:59;;;;;;;18.45;7.30;;;;;;;1.22;47.00;102569.09;4956789;28;20496;-68
2022/12/03 08:01:24;;;;;;;16.70;7.00;;;;;;;1.21;47.54;102569.91;4960328;28;20070;-68
2022/12/03 08:03:50;;;;;;;14.77;5.90;;;;;;;1.11;47.38;102564.53;4957216;28;20472;-68
2022/12/03 08:06:16;;;;;;;19.92;6.25;;;;;;;1.29;47.20;102571.00;4958728;28;20134;-68
2022/12/03 08:08:42;;;;;;;11.60;5.00;;;;;;;1.25;47.46;102571.75;4957134;28;20130;-68
2022/12/03 08:11:13;;;;;;;18.75;6.82;;;;;;;1.33;47.40;102575.41;4959675;28;20034;-68
2022/12/03 08:13:39;;;;;;;17.07;7.13;;;;;;;1.22;47.88;102579.41;4954603;28;20039;-68
2022/12/03 08:16:15;;;;;;;21.08;7.00;;;;;;;1.44;47.20;102580.84;4960095;28;20037;-68
2022/12/03 08:18:40;;;;;;;18.33;6.63;;;;;;;1.02;48.04;102581.44;4971900;28;20367;-67
2022/12/03 08:21:10;;;;;;;14.02;6.30;;;;;;;1.08;48.19;102576.44;4958883;28;20046;-67
2022/12/03 08:23:36;;;;;;;19.75;7.03;;;;;;;1.33;47.56;102583.13;4972004;28;20042;-68
2022/12/03 08:26:14;;;;;;;15.43;6.40;;;;;;;1.44;47.20;102581.72;4959895;28;20655;-68
2022/12/03 08:28:40;;;;;;;15.60;7.32;;;;;;;1.35;47.68;102576.31;4956937;28;20058;-68
2022/12/03 08:31:11;;;;;;;17.55;6.47;;;;;;;1.38;47.37;102575.53;4954334;28;20531;-68
2022/12/03 08:33:38;;;;;;;19.85;6.72;;;;;;;1.26;47.40;102576.06;4948304;28;20228;-68
2022/12/03 08:36:14;;;;;;;17.10;6.15;;;;;;;1.35;47.26;102576.31;4965723;28;20539;-67
2022/12/03 08:38:39;;;;;;;14.18;6.25;;;;;;;1.07;47.79;102566.97;4957559;28;20062;-68
2022/12/03 08:41:14;;;;;;;18.75;6.88;;;;;;;1.28;47.45;102571.81;4958429;28;20038;-68
2022/12/03 08:43:42;;;;;;;22.15;6.88;;;;;;;1.18;47.47;102564.69;4956682;28;20066;-67
2022/12/03 08:46:17;;;;;;;15.27;5.35;;;;;;;1.47;47.00;102566.34;4959346;28;20034;-68
2022/12/03 08:48:44;;;;;;;14.80;6.68;;;;;;;1.23;47.34;102561.38;4947174;28;20487;-68
2022/12/03 08:51:24;;;;;;;20.88;7.35;;;;;;;1.24;47.02;102563.16;4964653;28;20045;-67
2022/12/03 08:53:52;;;;;;;14.60;5.85;;;;;;;1.04;47.16;102561.75;4953265;28;20042;-68
2022/12/03 08:56:29;;;;;;;25.70;8.90;;;;;;;1.24;46.81;102567.44;4958405;28;20058;-68
2022/12/03 08:58:55;;;;;;;16.15;7.40;;;;;;;1.25;46.67;102564.88;4957007;28;20098;-68
2022/12/03 09:01:31;;;;;;;17.38;6.32;;;;;;;1.33;47.18;102557.38;4949466;28;20039;-67
2022/12/03 09:04:14;;;;;;;16.40;6.18;;;;;;;1.30;46.52;102562.44;4949920;28;20050;-68
2022/12/03 09:06:40;;;;;;;18.63;5.85;;;;;;;1.37;46.43;102563.44;4970342;28;20543;-67
2022/12/03 09:09:05;;;;;;;20.35;7.57;;;;;;;1.26;46.87;102563.16;4956355;28;20114;-68
2022/12/03 09:11:30;;;;;;;14.68;6.32;;;;;;;1.11;46.78;102564.53;4943605;28;20065;-68
2022/12/03 09:13:56;;;;;;;15.73;7.82;;;;;;;1.25;46.51;102556.28;4952982;28;20039;-67
2022/12/03 09:16:22;;;;;;;13.95;5.60;;;;;;;1.10;47.08;102562.81;4956068;28;20359;-68
2022/12/03 09:18:47;;;;;;;19.20;7.10;;;;;;;1.20;47.10;102556.19;4952752;28;20053;-67
2022/12/03 09:21:13;;;;;;;20.50;7.18;;;;;;;1.19;46.74;102563.84;4956472;28;20038;-66
2022/12/03 09:23:39;;;;;;;23.02;7.93;;;;;;;0.94;46.84;102560.63;4955463;28;20500;-66
2022/12/03 09:26:07;;;;;;;15.32;7.35;;;;;;;0.92;46.91;102564.00;4958277;28;20027;-67
2022/12/03 09:28:32;;;;;;;19.60;7.13;;;;;;;1.26;46.21;102558.03;4955225;28;20580;-66
2022/12/03 09:30:58;;;;;;;20.58;6.75;;;;;;;1.36;46.06;102565.16;4954948;28;20166;-66
2022/12/03 09:33:23;;;;;;;17.77;7.32;;;;;;;1.14;45.82;102560.28;4957009;28;20491;-67
2022/12/03 09:35:49;;;;;;;17.67;6.93;;;;;;;1.23;45.77;102566.53;4956605;28;20062;-66
2022/12/03 09:38:15;;;;;;;15.82;7.35;;;;;;;0.87;46.64;102566.44;4959957;28;20137;-66
2022/12/03 09:40:41;;;;;;;18.80;8.60;;;;;;;1.06;46.62;102558.41;4960084;28;20027;-66
2022/12/03 09:43:07;;;;;;;22.58;7.20;;;;;;;1.03;46.72;102560.88;4959135;28;20464;-66
2022/12/03 09:45:32;;;;;;;23.02;7.57;;;;;;;1.17;46.66;102557.78;4959511;28;20656;-67
2022/12/03 09:48:02;;;;;;;16.80;7.22;;;;;;;0.73;46.99;102552.31;4958809;28;20105;-67
2022/12/03 09:50:28;;;;;;;21.02;7.28;;;;;;;0.92;46.61;102554.56;4959386;28;20069;-66
2022/12/03 09:52:57;;;;;;;21.38;9.38;;;;;;;1.03;46.32;102553.13;4957839;28;20043;-66
2022/12/03 09:55:25;;;;;;;21.27;8.25;;;;;;;0.76;46.83;102552.41;4959716;28;20034;-66
2022/12/03 09:57:52;;;;;;;21.80;7.38;;;;;;;0.89;46.47;102549.34;4972754;28;20405;-67
2022/12/03 10:00:24;;;;;;;18.08;7.97;;;;;;;1.14;46.09;102548.28;4943710;28;20393;-66
2022/12/03 10:02:52;;;;;;;24.98;7.75;;;;;;;1.08;46.32;102546.44;4948432;28;21121;-66
2022/12/03 10:05:20;;;;;;;17.13;7.57;;;;;;;1.25;45.93;102543.41;4959069;28;20027;-67
2022/12/03 10:07:48;;;;;;;23.02;7.63;;;;;;;0.93;46.15;102540.00;4960409;28;20066;-66
2022/12/03 10:10:18;;;;;;;21.42;7.68;;;;;;;0.77;46.72;102544.72;4966352;28;20034;-68
2022/12/03 10:12:44;;;;;;;24.52;8.15;;;;;;;0.84;46.34;102544.06;4961660;28;20081;-66
2022/12/03 10:15:17;;;;;;;18.73;7.53;;;;;;;0.86;46.90;102539.84;4966227;28;20090;-66
2022/12/03 10:17:45;;;;;;;20.98;8.35;;;;;;;0.93;46.04;102540.88;4945776;28;20514;-67
2022/12/03 10:20:14;;;;;;;14.18;7.10;;;;;;;1.24;45.84;102541.69;4942429;28;20137;-67
2022/12/03 10:22:44;;;;;;;14.00;6.03;;;;;;;1.28;45.23;102530.59;4957660;28;20047;-68
2022/12/03 10:25:12;;;;;;;18.38;7.68;;;;;;;1.42;45.19;102531.88;4957568;28;20331;-67
2022/12/03 10:27:39;;;;;;;22.92;8.73;;;;;;;1.58;44.82;102530.53;4971218;28;20045;-67
2022/12/03 10:30:18;;;;;;;23.50;7.47;;;;;;;1.65;44.99;102518.66;4940631;28;20188;-67
2022/12/03 10:32:47;;;;;;;20.38;7.93;;;;;;;1.27;45.18;102526.28;4955515;28;20050;-67
2022/12/03 10:35:20;;;;;;;24.05;8.10;;;;;;;1.19;45.51;102517.50;4959186;28;20115;-67
2022/12/03 10:38:00;;;;;;;16.67;7.10;;;;;;;0.96;46.06;102515.19;4946280;28;20042;-67
2022/12/03 10:40:33;;;;;;;16.52;6.72;;;;;;;1.00;46.49;102513.59;4957069;28;20447;-67
2022/12/03 10:43:16;;;;;;;16.88;7.70;;;;;;;1.10;45.95;102508.72;4947359;28;20038;-67
2022/12/03 10:45:45;;;;;;;26.83;8.05;;;;;;;0.98;46.43;102513.53;4957118;28;20038;-67
2022/12/03 10:48:15;;;;;;;23.00;8.98;;;;;;;0.87;46.52;102504.66;4955820;28;20039;-67
2022/12/03 10:50:52;;;;;;;20.75;8.63;;;;;;;1.16;46.38;102507.97;4957514;28;20033;-67
2022/12/03 10:53:30;;;;;;;23.33;8.30;;;;;;;1.15;46.11;102501.09;4957984;28;20118;-67
2022/12/03 10:55:58;;;;;;;17.40;7.30;;;;;;;1.26;45.46;102501.34;4956215;28;21359;-67
2022/12/03 10:58:26;;;;;;;20.88;8.15;;;;;;;1.22;45.68;102496.97;4956535;28;20101;-68
2022/12/03 11:00:54;;;;;;;19.13;7.75;;;;;;;1.31;45.28;102494.63;4956867;28;20401;-67
2022/12/03 11:03:26;;;;;;;18.05;6.82;;;;;;;1.30;45.29;102505.75;4957424;28;20041;-67
2022/12/03 11:05:54;;;;;;;21.73;7.85;;;;;;;1.22;45.34;102497.84;4955720;28;20042;-67
2022/12/03 11:08:22;;;;;;;17.23;6.82;;;;;;;0.95;45.68;102494.53;4952039;28;20157;-66
2022/12/03 11:11:15;;;;;;;20.85;6.88;;;;;;;1.26;45.80;102485.88;4957500;28;20035;-68
2022/12/03 11:13:40;;;;;;;;;;;;;;;1.27;45.74;102487.66;4954455;28;20038;-66
2022/12/03 11:16:07;;;;;;;20.08;6.95;;;;;;;1.51;45.38;102477.97;4956971;28;20298;-66
2022/12/03 11:18:35;;;;;;;20.23;7.10;;;;;;;1.45;45.27;102482.97;4955635;28;20717;-66
2022/12/03 11:21:07;;;;;;;20.42;8.20;;;;;;;1.39;45.16;102484.50;4957935;28;20412;-67
2022/12/03 11:23:47;;;;;;;20.13;7.50;;;;;;;1.27;45.38;102473.06;4955288;28;20042;-69
2022/12/03 11:26:13;;;;;;;24.80;8.57;;;;;;;1.11;45.47;102469.25;4948825;28;20105;-67
2022/12/03 11:28:44;;;;;;;21.30;7.93;;;;;;;1.45;45.34;102464.94;4954458;28;20565;-67
2022/12/03 11:31:30;;;;;;;19.90;8.23;;;;;;;1.57;44.95;102468.63;4949596;28;20081;-67
2022/12/03 11:34:18;;;;;;;19.65;7.30;;;;;;;1.65;44.48;102470.53;4955673;28;20046;-67
2022/12/03 11:37:09;;;;;;;25.77;8.98;;;;;;;1.39;45.48;102462.16;4944417;28;20112;-67
2022/12/03 11:39:59;;;;;;;24.60;8.88;;;;;;;1.22;45.80;102455.78;4956880;28;20066;-67
2022/12/03 11:42:38;;;;;;;21.65;7.60;;;;;;;1.37;45.76;102455.25;4946185;28;20120;-67
2022/12/03 11:45:07;;;;;;;24.13;9.55;;;;;;;1.44;45.42;102454.56;4956657;28;20038;-68
2022/12/03 11:47:40;;;;;;;23.48;7.30;;;;;;;1.50;45.33;102447.88;4957376;28;20038;-67
2022/12/03 11:50:22;;;;;;;21.27;8.82;;;;;;;1.67;44.60;102442.25;4971374;28;20062;-67
2022/12/03 11:52:54;;;;;;;24.45;9.27;;;;;;;1.69;44.07;102440.56;4954742;28;20470;-68